πŸ“Š DonnΓ©es MΓ©tΓ©o - Bordeaux

Total mesures

14,392

TempΓ©rature moyenne

18.9Β°C

Temp. Min/Max

2.9Β° / 42.4Β°

HumiditΓ© moyenne

64.8%

Pression moyenne

1014.7 hPa
enregistrements
ID Date/Heure Temp (Β°C) HumiditΓ© (%) Pression (hPa) Tendance LuminositΓ© (lux) Situation
11992 26/07/2026 13:15 26.9 38.0 1,015.0 β†’ Stable 101,940 confortablement-chaud (approx.)
11991 26/07/2026 12:45 26.8 38.0 1,014.9 β†’ Stable 104,628 confortablement-chaud (approx.)
11990 26/07/2026 12:15 26.5 39.0 1,014.9 β†’ Stable 100,560 confortablement-chaud (approx.)
11989 26/07/2026 11:45 26.0 41.0 1,014.9 β†’ Stable 99,444 confortablement-chaud
11988 26/07/2026 11:15 25.7 43.0 1,014.9 β†’ Stable 92,592 confortablement-chaud
11987 26/07/2026 10:45 25.2 46.0 1,014.9 β†’ Stable 88,884 confortablement-chaud
11986 26/07/2026 10:15 25.0 48.0 1,014.9 β†’ Stable 86,580 confortablement-chaud
11985 26/07/2026 09:45 24.4 51.0 1,014.6 β†’ Stable 82,404 confortablement-chaud
11984 26/07/2026 09:15 23.9 53.0 1,014.6 β†’ Stable 72,780 confortablement-chaud (approx.)
11983 26/07/2026 08:45 23.1 57.0 1,014.5 β†’ Stable 65,652 conditions-neutrales-ou-non-definies
11982 26/07/2026 08:15 22.5 60.0 1,014.5 β†’ Stable 55,092 frais-stable
11981 26/07/2026 07:45 21.5 65.0 1,014.3 β†’ Stable 46,764 frais-stable
11980 26/07/2026 07:15 20.8 71.0 1,014.3 β†’ Stable 37,224 pluvieux-gris (approx.)
11979 26/07/2026 06:45 20.0 76.0 1,013.9 β†’ Stable 29,172 pluvieux-gris (approx.)
11978 26/07/2026 06:15 19.3 78.0 1,013.9 β†’ Stable 17,124 pluvieux-gris (approx.)
11977 26/07/2026 05:45 18.7 81.0 1,013.6 β†’ Stable 9,996 pluvieux-gris (approx.)
11976 26/07/2026 05:15 19.0 81.0 1,013.8 β†’ Stable 1,848 pluvieux-gris (approx.)
11975 26/07/2026 04:45 18.9 81.0 1,013.5 β†’ Stable 0 pluvieux-gris (approx.)
11974 26/07/2026 04:15 19.4 80.0 1,013.5 β†’ Stable 0 pluvieux-gris (approx.)
11973 26/07/2026 03:45 19.6 79.0 1,013.4 β†’ Stable 0 pluvieux-gris (approx.)
11972 26/07/2026 03:15 19.9 78.0 1,013.4 β†’ Stable 0 pluvieux-gris (approx.)
11971 26/07/2026 02:45 19.8 79.0 1,013.6 β†’ Stable 0 pluvieux-gris (approx.)
11970 26/07/2026 02:15 20.1 76.0 1,013.6 β†’ Stable 0 pluvieux-gris (approx.)
11969 26/07/2026 01:45 19.9 78.0 1,013.7 β†’ Stable 0 pluvieux-gris (approx.)
11968 26/07/2026 01:15 20.3 75.0 1,013.6 β†’ Stable 0 pluvieux-gris (approx.)
11967 26/07/2026 00:45 20.5 74.0 1,013.5 β†’ Stable 0 pluvieux-gris (approx.)
11966 26/07/2026 00:15 20.6 74.0 1,013.5 β†’ Stable 0 pluvieux-gris (approx.)
11965 25/07/2026 23:45 20.5 74.0 1,013.2 β†’ Stable 0 pluvieux-gris (approx.)
11964 25/07/2026 23:15 20.4 75.0 1,013.2 β†’ Stable 0 pluvieux-gris (approx.)
11963 25/07/2026 22:45 20.6 75.0 1,012.7 β†’ Stable 0 pluvieux-gris (approx.)
11962 25/07/2026 22:15 21.2 71.0 1,012.7 β†’ Stable 0 pluvieux-gris (approx.)
11961 25/07/2026 21:45 21.4 73.0 1,012.3 β†’ Stable 0 pluvieux-gris (approx.)
11960 25/07/2026 21:15 21.2 74.0 1,012.3 β†’ Stable 0 pluvieux-gris (approx.)
11959 25/07/2026 20:45 21.4 75.0 1,011.3 β†’ Stable 0 pluvieux-gris (approx.)
11958 25/07/2026 20:15 21.9 69.0 1,011.3 β†’ Stable 0 frais-stable
11957 25/07/2026 19:45 22.3 67.0 1,010.5 β†’ Stable 0 frais-stable
11956 25/07/2026 19:15 23.0 66.0 1,010.5 β†’ Stable 4,728 frais-stable
11955 25/07/2026 18:45 23.7 68.0 1,009.5 β†’ Stable 11,664 conditions-neutrales-ou-non-definies
11954 25/07/2026 18:15 24.9 63.0 1,009.5 β†’ Stable 16,116 confortablement-chaud (approx.)
11953 25/07/2026 17:45 25.0 63.0 1,008.7 β†’ Stable 25,836 confortablement-chaud (approx.)
11952 25/07/2026 17:15 25.6 57.0 1,008.7 β†’ Stable 36,576 confortablement-chaud (approx.)
11951 25/07/2026 16:45 26.5 52.0 1,008.1 β†’ Stable 49,356 confortablement-chaud (approx.)
11950 25/07/2026 16:15 28.1 43.0 1,008.1 β†’ Stable 63,612 confortablement-chaud (approx.)
11949 25/07/2026 15:45 28.2 42.0 1,007.6 β†’ Stable 72,312 confortablement-chaud
11948 25/07/2026 15:15 29.2 41.0 1,007.6 β†’ Stable 77,124 confortablement-chaud (approx.)
11947 25/07/2026 14:45 28.9 39.0 1,007.7 β†’ Stable 84,072 confortablement-chaud (approx.)
11946 25/07/2026 14:15 28.6 42.0 1,007.7 β†’ Stable 81,480 confortablement-chaud
11945 25/07/2026 13:45 27.7 45.0 1,008.5 β†’ Stable 82,404 confortablement-chaud
11944 25/07/2026 13:15 28.7 42.0 1,007.9 β†’ Stable 90,468 confortablement-chaud
11943 25/07/2026 12:45 27.9 45.0 1,007.7 β†’ Stable 89,904 confortablement-chaud
11942 25/07/2026 12:15 28.7 43.0 1,007.7 β†’ Stable 104,352 confortablement-chaud
11941 25/07/2026 11:45 28.1 46.0 1,007.8 β†’ Stable 104,724 confortablement-chaud
11940 25/07/2026 11:15 28.5 47.0 1,007.8 β†’ Stable 99,816 confortablement-chaud
11939 25/07/2026 10:45 27.8 50.0 1,007.9 β†’ Stable 96,300 confortablement-chaud
11938 25/07/2026 10:15 27.0 55.0 1,007.9 β†’ Stable 88,152 confortablement-chaud
11937 25/07/2026 09:45 26.3 57.0 1,008.2 β†’ Stable 84,996 confortablement-chaud
11936 25/07/2026 09:15 26.5 58.0 1,008.2 β†’ Stable 72,132 confortablement-chaud
11935 25/07/2026 08:45 25.8 61.0 1,008.3 β†’ Stable 64,536 confortablement-chaud (approx.)
11934 25/07/2026 08:15 25.7 61.0 1,008.3 β†’ Stable 58,800 confortablement-chaud (approx.)
11933 25/07/2026 07:45 25.1 64.0 1,008.2 β†’ Stable 50,280 confortablement-chaud (approx.)
11932 25/07/2026 07:15 24.6 68.0 1,008.2 β†’ Stable 38,424 confortablement-chaud (approx.)
11931 25/07/2026 06:45 24.0 69.0 1,007.9 β†’ Stable 29,628 confortablement-chaud (approx.)
11930 25/07/2026 06:15 23.1 74.0 1,007.9 β†’ Stable 17,496 pluvieux-gris (approx.)
11929 25/07/2026 05:45 22.6 75.0 1,008.0 β†’ Stable 10,272 pluvieux-gris (approx.)
11928 25/07/2026 05:15 22.1 78.0 1,007.9 β†’ Stable 2,772 pluvieux-gris (approx.)
11927 25/07/2026 04:45 21.9 79.0 1,007.8 β†’ Stable 0 pluvieux-gris (approx.)
11926 25/07/2026 04:15 21.9 83.0 1,007.8 β†’ Stable 0 pluvieux-gris (approx.)
11925 25/07/2026 03:45 22.0 83.0 1,007.5 β†’ Stable 0 pluvieux-gris (approx.)
11924 25/07/2026 03:15 21.8 85.0 1,007.5 β†’ Stable 0 pluvieux-gris (approx.)
11923 25/07/2026 03:00 21.8 86.0 1,007.5 β†’ Stable 0 pluvieux-gris (approx.)
11922 25/07/2026 02:45 21.8 86.0 1,007.1 β†’ Stable 0 pluvieux-gris (approx.)
11921 25/07/2026 02:15 22.3 78.0 1,007.1 β†’ Stable 0 pluvieux-gris (approx.)
11920 25/07/2026 01:45 22.3 79.0 1,007.4 β†’ Stable 0 pluvieux-gris (approx.)
11919 25/07/2026 01:15 22.0 83.0 1,007.4 β†’ Stable 0 pluvieux-gris (approx.)
11918 25/07/2026 00:45 22.0 84.0 1,007.6 β†’ Stable 0 pluvieux-gris (approx.)
11917 25/07/2026 00:15 22.0 85.0 1,007.6 β†’ Stable 0 pluvieux-gris (approx.)
11916 24/07/2026 23:45 22.1 86.0 1,008.2 β†’ Stable 0 pluvieux-gris (approx.)
11915 24/07/2026 23:15 21.9 85.0 1,008.2 β†’ Stable 0 pluvieux-gris (approx.)
11914 24/07/2026 22:45 21.6 87.0 1,006.9 β†’ Stable 0 pluvieux-gris (approx.)
11913 24/07/2026 22:15 23.9 69.0 1,006.9 β†’ Stable 0 conditions-neutrales-ou-non-definies
11912 24/07/2026 21:45 25.2 59.0 1,006.8 β†’ Stable 0 confortablement-chaud (approx.)
11911 24/07/2026 21:15 26.7 49.0 1,006.8 β†’ Stable 0 confortablement-chaud (approx.)
11910 24/07/2026 20:45 26.9 48.0 1,006.3 β†’ Stable 0 confortablement-chaud (approx.)
11909 24/07/2026 20:15 27.7 38.0 1,006.3 β†’ Stable 0 conditions-neutrales-ou-non-definies
11908 24/07/2026 19:45 29.2 30.0 1,005.8 β†’ Stable 0 conditions-neutrales-ou-non-definies
11907 24/07/2026 19:15 30.7 26.0 1,005.8 β†’ Stable 5,556 chaleur-seche
11906 24/07/2026 18:45 31.7 25.0 1,004.7 β†’ Stable 13,332 chaleur-seche
11905 24/07/2026 18:15 34.1 18.0 1,004.7 β†’ Stable 23,976 chaleur-seche
11904 24/07/2026 17:45 36.1 15.0 1,004.9 β†’ Stable 33,792 chaleur-seche
11903 24/07/2026 17:15 37.1 13.0 1,004.9 β†’ Stable 45,552 chaleur-seche
11902 24/07/2026 16:45 37.3 13.0 1,005.4 β†’ Stable 55,560 chaleur-seche
11901 24/07/2026 16:15 37.8 12.0 1,005.4 β†’ Stable 66,576 chaleur-seche
11900 24/07/2026 15:45 37.4 12.0 1,006.3 β†’ Stable 75,552 chaleur-seche
11899 24/07/2026 15:15 36.9 13.0 1,006.3 β†’ Stable 83,148 chaleur-seche
11898 24/07/2026 14:45 36.3 14.0 1,007.2 β†’ Stable 89,820 chaleur-seche
11897 24/07/2026 14:15 36.3 15.0 1,007.2 β†’ Stable 95,460 chaleur-seche
11896 24/07/2026 13:45 36.0 14.0 1,007.8 β†’ Stable 99,912 chaleur-seche
11895 24/07/2026 13:15 35.5 15.0 1,007.9 β†’ Stable 103,152 chaleur-seche
11894 24/07/2026 12:45 34.9 15.0 1,008.8 β†’ Stable 105,000 chaleur-seche
11893 24/07/2026 12:15 34.3 17.0 1,008.8 β†’ Stable 105,648 chaleur-seche